ilmateenistus.ee keskkonnaagentuur.ee
EETN Tallinna lennuväli
FTEO31 EETN 091700
TAF EETN 091710Z 0918/1018 22015KT 9999 FEW025CB BKN030 TEMPO
    0918/0924 4000 SHRA BKN010 SCT015CB TEMPO 1000/1003 4000 SHRA BKN006
    SCT013CB BECMG 1002/1004 34012KT TEMPO 1004/1008 35015G25KT 1000
    +SHSN BKN003 BKN013CB BECMG 1008/1010 SCT020=

METAR EETN 091720Z 23009KT 9999 SCT013 SCT020CB BKN035 05/04 Q0990 R08/290195 NOSIG=
Tallinna lennuväli
EEKA Kärdla lennuväli
FCEO32 EETN 091300 AAA
TAF AMD EEKA 091700Z 0914/0920 CNL=

METAR EEKA 091650Z NIL=
Kärdla lennuväli
EEKE Kuressaare lennuväli
FCEO32 EETN 091500
TAF EEKE 091500Z 0916/0922 22012KT 9999 BKN020 TEMPO 0916/0922
    24015G25KT 5000 SHRA BKN010 SCT015CB BKN020=

METAR EEKE 091650Z 24010KT 210V270 9999 -RA FEW038 OVC040 07/03 Q0991 R17/290095=
Kuressaare lennuväli
EEPU Pärnu lennuväli
METAR EEPU 091650Z NIL=
Pärnu lennuväli
EETU Tartu lennuväli
METAR EETU 091720Z AUTO 22013KT 9999 SCT023/// BKN031/// 05/03 Q0994=
Tartu lennuväli
EEEI Ämari lennuväli
METAR EEEI 091720Z AUTO 19009KT 9999 -RA BKN015 OVC047 05/04 Q0990 R24/290095=
Ämari lennuväli

Uudised

Lisainfo 24h: 666 0932 aviamet@envir.ee